Time;durP1;ratioP1;P1;durP2;ratioP2;P2;SDS_P1;SDS_P2;PMS_P1;PMS_P2;Temp;Humidity;BMP_temperature;BMP_pressure;BME280_temperature;BME280_humidity;BME280_pressure;Samples;Min_cycle;Max_cycle;Signal;HPM_P1;HPM_P2
2023/05/28 00:01:32;;;;;;;9.00;5.93;;;16.50;99.30;;;;;;5032738;28;20174;-69
2023/05/28 00:03:58;;;;;;;9.47;6.53;;;16.50;99.00;;;;;;5035226;28;20175;-68
2023/05/28 00:06:23;;;;;;;7.70;6.17;;;16.50;99.40;;;;;;5029489;28;20184;-68
2023/05/28 00:08:49;;;;;;;9.67;6.33;;;16.50;99.40;;;;;;5017209;28;20188;-69
2023/05/28 00:11:15;;;;;;;8.53;5.50;;;16.50;99.70;;;;;;5016913;28;20172;-69
2023/05/28 00:13:40;;;;;;;7.97;5.87;;;16.40;99.50;;;;;;5017112;28;20262;-69
2023/05/28 00:16:06;;;;;;;8.50;6.23;;;16.40;99.90;;;;;;5016747;28;20638;-69
2023/05/28 00:18:32;;;;;;;9.10;6.30;;;16.40;99.90;;;;;;5016611;28;20572;-69
2023/05/28 00:20:58;;;;;;;9.00;5.90;;;16.30;99.90;;;;;;5017036;28;20540;-67
2023/05/28 00:23:23;;;;;;;8.77;6.90;;;16.30;99.90;;;;;;5016355;28;20450;-69
2023/05/28 00:25:49;;;;;;;7.50;5.23;;;16.30;99.90;;;;;;5016667;28;20203;-68
2023/05/28 00:28:15;;;;;;;7.07;5.70;;;16.20;99.90;;;;;;5016425;28;20187;-69
2023/05/28 00:30:40;;;;;;;9.63;6.47;;;16.20;99.90;;;;;;5016532;28;20198;-68
2023/05/28 00:33:06;;;;;;;7.93;5.80;;;16.20;99.90;;;;;;5016392;28;20265;-68
2023/05/28 00:35:31;;;;;;;8.40;5.77;;;16.10;99.90;;;;;;5016997;28;20184;-69
2023/05/28 00:37:57;;;;;;;6.73;4.67;;;16.00;99.90;;;;;;5034285;28;20221;-69
2023/05/28 00:40:22;;;;;;;10.70;5.60;;;16.00;99.90;;;;;;5036681;28;20207;-68
2023/05/28 00:42:48;;;;;;;7.00;5.60;;;15.90;99.90;;;;;;5036233;28;20208;-67
2023/05/28 00:45:14;;;;;;;9.40;6.00;;;15.80;99.90;;;;;;5036365;28;20178;-67
2023/05/28 00:47:41;;;;;;;9.13;5.67;;;15.90;99.90;;;;;;5035894;28;20186;-66
2023/05/28 00:50:12;;;;;;;10.27;6.40;;;15.90;99.90;;;;;;5035929;28;20791;-67
2023/05/28 00:52:38;;;;;;;8.03;5.40;;;15.90;99.90;;;;;;5035437;28;20845;-67
2023/05/28 00:55:22;;;;;;;8.67;5.77;;;15.80;99.90;;;;;;5035831;28;20448;-68
2023/05/28 00:57:53;;;;;;;9.30;6.03;;;15.90;99.90;;;;;;5036098;28;20614;-67
2023/05/28 01:00:19;;;;;;;9.83;6.00;;;15.80;99.90;;;;;;5018042;28;20508;-67
2023/05/28 01:02:44;;;;;;;7.07;5.00;;;15.70;99.90;;;;;;5035565;28;20532;-66
2023/05/28 01:05:10;;;;;;;9.10;6.40;;;15.60;99.90;;;;;;5035677;28;20699;-69
2023/05/28 01:07:36;;;;;;;7.30;5.10;;;15.50;99.90;;;;;;5035112;28;20215;-69
2023/05/28 01:10:02;;;;;;;10.40;6.03;;;15.50;99.90;;;;;;5017746;28;20572;-68
2023/05/28 01:12:28;;;;;;;8.40;5.77;;;15.30;99.90;;;;;;5035523;28;20411;-68
2023/05/28 01:14:55;;;;;;;9.80;5.97;;;15.40;99.90;;;;;;5034769;28;20401;-69
2023/05/28 01:17:20;;;;;;;10.70;6.60;;;15.40;99.90;;;;;;5002410;28;20583;-70
2023/05/28 01:19:47;;;;;;;8.50;5.90;;;15.40;99.90;;;;;;5015915;28;20468;-68
2023/05/28 01:22:16;;;;;;;8.73;5.80;;;15.30;99.90;;;;;;5015075;28;20583;-69
2023/05/28 01:24:44;;;;;;;8.20;6.07;;;15.40;99.90;;;;;;5015581;28;20404;-68
2023/05/28 01:27:11;;;;;;;6.70;5.17;;;15.40;99.90;;;;;;5015534;28;20503;-68
2023/05/28 01:29:37;;;;;;;9.63;6.13;;;15.30;99.90;;;;;;5015363;28;20999;-68
2023/05/28 01:32:03;;;;;;;9.37;5.87;;;15.30;99.90;;;;;;5015726;28;20495;-68
2023/05/28 01:34:28;;;;;;;8.53;6.07;;;15.30;99.90;;;;;;5015337;28;20168;-68
2023/05/28 01:37:10;;;;;;;9.60;5.90;;;15.30;99.90;;;;;;5024689;28;20923;-68
2023/05/28 01:39:42;;;;;;;7.60;5.50;;;15.30;99.90;;;;;;5035019;28;20309;-68
2023/05/28 01:42:08;;;;;;;9.07;6.07;;;15.30;99.90;;;;;;5035261;28;20442;-69
2023/05/28 01:44:35;;;;;;;8.27;6.23;;;15.10;99.90;;;;;;5034937;28;20875;-69
2023/05/28 01:47:01;;;;;;;9.63;6.40;;;15.20;99.90;;;;;;5036108;28;20434;-68
2023/05/28 01:49:26;;;;;;;11.37;7.07;;;15.10;99.90;;;;;;5035697;28;20453;-69
2023/05/28 01:51:52;;;;;;;9.83;7.10;;;15.10;99.90;;;;;;5035608;28;20412;-72
2023/05/28 01:54:18;;;;;;;12.00;7.07;;;15.00;99.90;;;;;;5035229;28;20174;-72
2023/05/28 01:56:44;;;;;;;9.10;7.60;;;14.90;99.90;;;;;;5034705;28;20199;-72
2023/05/28 01:59:10;;;;;;;10.50;6.70;;;14.90;99.90;;;;;;5034752;28;20586;-72
2023/05/28 02:01:36;;;;;;;9.90;7.00;;;15.00;99.90;;;;;;5035409;28;20170;-72
2023/05/28 02:04:02;;;;;;;7.23;6.03;;;15.00;99.90;;;;;;5034619;28;20193;-72
2023/05/28 02:06:32;;;;;;;9.90;6.10;;;14.90;99.90;;;;;;5028352;28;20501;-72
2023/05/28 02:08:58;;;;;;;9.57;7.30;;;14.90;99.90;;;;;;5014632;28;20199;-72
2023/05/28 02:11:25;;;;;;;9.53;6.70;;;14.90;99.90;;;;;;5014675;28;20411;-72
2023/05/28 02:13:52;;;;;;;9.93;5.87;;;15.00;99.90;;;;;;5014910;28;20171;-72
2023/05/28 02:16:18;;;;;;;9.37;7.40;;;14.90;99.90;;;;;;5014696;28;20417;-72
2023/05/28 02:18:44;;;;;;;10.27;6.70;;;14.90;99.90;;;;;;5014614;28;20515;-71
2023/05/28 02:21:10;;;;;;;7.80;6.50;;;14.80;99.90;;;;;;5014293;28;20407;-72
2023/05/28 02:23:38;;;;;;;7.13;6.17;;;14.80;99.90;;;;;;5014423;28;20989;-72
2023/05/28 02:26:04;;;;;;;8.03;7.10;;;14.80;99.90;;;;;;5014148;28;20492;-72
2023/05/28 02:28:30;;;;;;;10.80;6.57;;;14.80;99.90;;;;;;5015116;28;20450;-72
2023/05/28 02:30:55;;;;;;;10.23;7.03;;;14.80;99.90;;;;;;5015876;28;20413;-72
2023/05/28 02:33:21;;;;;;;9.60;6.67;;;14.80;99.90;;;;;;4996776;28;20211;-72
2023/05/28 02:35:47;;;;;;;12.70;6.60;;;14.70;99.90;;;;;;5015272;28;20177;-71
2023/05/28 02:38:13;;;;;;;11.40;7.40;;;14.60;99.90;;;;;;5033272;28;21022;-72
2023/05/28 02:40:38;;;;;;;10.80;7.13;;;14.60;99.90;;;;;;5034099;28;20177;-72
2023/05/28 02:43:04;;;;;;;12.03;6.40;;;14.70;99.90;;;;;;5033770;28;20212;-72
2023/05/28 02:45:29;;;;;;;8.00;6.70;;;14.60;99.90;;;;;;5033813;28;20253;-71
2023/05/28 02:47:55;;;;;;;9.60;6.70;;;14.70;99.90;;;;;;5033700;28;20240;-72
2023/05/28 02:50:20;;;;;;;10.87;6.67;;;14.70;99.90;;;;;;5033979;28;20253;-71
2023/05/28 02:52:46;;;;;;;9.23;7.10;;;14.70;99.90;;;;;;5033184;28;20204;-72
2023/05/28 02:55:11;;;;;;;8.13;5.93;;;14.70;99.90;;;;;;5033493;28;20179;-71
2023/05/28 02:57:37;;;;;;;7.40;6.07;;;14.70;99.90;;;;;;5033492;28;20194;-72
2023/05/28 03:00:03;;;;;;;11.30;6.63;;;14.60;99.90;;;;;;5033581;28;20247;-72
2023/05/28 03:02:28;;;;;;;8.97;6.30;;;14.50;99.90;;;;;;5033407;28;20296;-72
2023/05/28 03:04:54;;;;;;;10.10;7.97;;;14.30;99.90;;;;;;5033670;28;20182;-72
2023/05/28 03:07:20;;;;;;;10.47;6.77;;;14.20;99.90;;;;;;5032814;28;20190;-71
2023/05/28 03:09:45;;;;;;;11.50;6.90;;;14.20;99.90;;;;;;5033674;28;20175;-71
2023/05/28 03:12:11;;;;;;;8.77;5.43;;;14.10;99.90;;;;;;5030240;28;20444;-72
2023/05/28 03:14:36;;;;;;;9.00;6.93;;;14.10;99.90;;;;;;5033333;28;20634;-72
2023/05/28 03:17:02;;;;;;;10.80;6.40;;;14.10;99.90;;;;;;5015442;28;20178;-72
2023/05/28 03:19:28;;;;;;;9.40;6.80;;;14.10;99.90;;;;;;5018040;28;20209;-72
2023/05/28 03:21:53;;;;;;;8.20;6.10;;;14.10;99.90;;;;;;5032649;28;20676;-70
2023/05/28 03:24:19;;;;;;;9.87;6.73;;;14.10;99.90;;;;;;5033411;28;20171;-72
2023/05/28 03:26:44;;;;;;;11.97;7.43;;;14.10;99.90;;;;;;5033151;28;20167;-72
2023/05/28 03:29:10;;;;;;;7.43;6.63;;;14.10;99.90;;;;;;5033170;28;20226;-72
2023/05/28 03:31:44;;;;;;;8.53;6.67;;;14.10;99.90;;;;;;5033437;28;20632;-72
2023/05/28 03:34:10;;;;;;;9.40;6.63;;;14.10;99.90;;;;;;5033398;28;20158;-71
2023/05/28 03:36:35;;;;;;;10.37;6.60;;;14.10;99.90;;;;;;5025654;28;20524;-72
2023/05/28 03:39:01;;;;;;;11.70;7.60;;;14.10;99.90;;;;;;5012894;28;20224;-72
2023/05/28 03:41:26;;;;;;;10.87;6.47;;;14.10;99.90;;;;;;5013545;28;20218;-72
2023/05/28 03:43:52;;;;;;;9.47;6.70;;;14.10;99.90;;;;;;5013141;28;20631;-72
2023/05/28 03:46:17;;;;;;;11.30;7.20;;;14.10;99.90;;;;;;5013261;28;20175;-72
2023/05/28 03:48:43;;;;;;;8.10;7.20;;;14.10;99.90;;;;;;5013201;28;20194;-72
2023/05/28 03:51:09;;;;;;;12.60;7.27;;;14.00;99.90;;;;;;5013219;28;20199;-72
2023/05/28 03:53:35;;;;;;;7.00;5.83;;;14.00;99.90;;;;;;4995042;28;20178;-72
2023/05/28 03:56:01;;;;;;;10.37;7.00;;;14.10;99.90;;;;;;4995447;28;20513;-72
2023/05/28 03:58:27;;;;;;;11.80;7.10;;;14.10;99.90;;;;;;5013310;28;20470;-72
2023/05/28 04:00:52;;;;;;;10.73;6.80;;;14.00;99.90;;;;;;5013004;28;20655;-71
2023/05/28 04:03:18;;;;;;;7.60;6.27;;;13.90;99.90;;;;;;5012947;28;20274;-71
2023/05/28 04:05:43;;;;;;;15.50;6.70;;;14.00;99.90;;;;;;5013685;28;20182;-71
2023/05/28 04:08:09;;;;;;;9.83;6.67;;;14.10;99.90;;;;;;5032508;28;20203;-71
2023/05/28 04:10:34;;;;;;;8.90;5.67;;;14.10;99.90;;;;;;5033501;28;20220;-71
2023/05/28 04:13:00;;;;;;;9.57;7.10;;;14.10;99.90;;;;;;5033622;28;20249;-71
2023/05/28 04:15:26;;;;;;;12.47;7.60;;;14.10;99.90;;;;;;5033614;28;20170;-71
2023/05/28 04:17:51;;;;;;;10.80;6.13;;;14.10;99.90;;;;;;5033766;28;20696;-71
2023/05/28 04:20:17;;;;;;;9.93;7.10;;;14.10;99.90;;;;;;5033587;28;20177;-72
2023/05/28 04:22:42;;;;;;;10.40;6.23;;;14.20;99.90;;;;;;5032899;28;20201;-71
2023/05/28 04:25:08;;;;;;;10.27;8.00;;;14.20;99.90;;;;;;5032780;28;20174;-71
2023/05/28 04:27:34;;;;;;;10.53;6.93;;;14.20;99.90;;;;;;5032366;28;20236;-72
2023/05/28 04:30:00;;;;;;;10.00;6.80;;;14.20;99.90;;;;;;5032555;28;20225;-70
2023/05/28 04:32:27;;;;;;;10.70;7.17;;;14.40;99.90;;;;;;5014776;28;20415;-71
2023/05/28 04:34:53;;;;;;;8.27;6.77;;;14.40;99.90;;;;;;5032466;28;20409;-72
2023/05/28 04:37:19;;;;;;;10.60;6.87;;;14.40;99.90;;;;;;5032047;28;20426;-71
2023/05/28 04:39:45;;;;;;;12.97;6.17;;;14.50;99.90;;;;;;5032967;28;20193;-71
2023/05/28 04:42:16;;;;;;;11.13;7.20;;;14.50;99.90;;;;;;5032280;28;20453;-71
2023/05/28 04:44:42;;;;;;;10.93;6.77;;;14.50;99.90;;;;;;5032829;28;20242;-72
2023/05/28 04:47:09;;;;;;;14.10;7.10;;;14.60;99.90;;;;;;5032671;28;20844;-71
2023/05/28 04:49:34;;;;;;;8.90;6.77;;;14.60;99.90;;;;;;5034086;28;20464;-72
2023/05/28 04:52:00;;;;;;;10.00;7.13;;;14.70;99.90;;;;;;5035975;28;20445;-72
2023/05/28 04:54:26;;;;;;;7.70;6.90;;;14.70;99.90;;;;;;5035746;28;20176;-72
2023/05/28 04:56:52;;;;;;;8.57;6.97;;;14.70;99.90;;;;;;5036143;28;20260;-72
2023/05/28 04:59:18;;;;;;;8.97;6.30;;;14.80;99.90;;;;;;5035763;28;20463;-72
2023/05/28 05:01:43;;;;;;;8.57;5.47;;;14.80;99.90;;;;;;5036099;28;20177;-72
2023/05/28 05:04:09;;;;;;;9.23;7.43;;;14.90;99.90;;;;;;5036023;28;20436;-72
2023/05/28 05:06:34;;;;;;;8.80;6.63;;;14.90;99.90;;;;;;5035455;28;20181;-72
2023/05/28 05:09:00;;;;;;;8.80;6.07;;;15.00;99.90;;;;;;5035421;28;20305;-72
2023/05/28 05:11:26;;;;;;;9.60;6.00;;;15.10;99.90;;;;;;5035635;28;20594;-72
2023/05/28 05:13:52;;;;;;;7.43;6.73;;;15.20;99.90;;;;;;5029262;28;20693;-72
2023/05/28 05:16:18;;;;;;;7.90;6.30;;;15.30;99.90;;;;;;5016023;28;20424;-72
2023/05/28 05:18:44;;;;;;;13.57;6.97;;;15.50;99.90;;;;;;5016162;28;20936;-72
2023/05/28 05:21:12;;;;;;;9.73;7.00;;;15.50;99.90;;;;;;5016143;28;20497;-72
2023/05/28 05:23:39;;;;;;;10.93;7.27;;;15.60;99.90;;;;;;5015596;28;20196;-72
2023/05/28 05:26:04;;;;;;;14.73;6.60;;;15.70;99.90;;;;;;5015638;28;20410;-72
2023/05/28 05:28:30;;;;;;;9.70;7.03;;;15.80;99.90;;;;;;5017029;28;20436;-72
2023/05/28 05:30:56;;;;;;;9.40;7.53;;;16.00;99.90;;;;;;5016375;28;20649;-72
2023/05/28 05:33:21;;;;;;;7.60;6.63;;;16.00;99.90;;;;;;5015755;28;20178;-72
2023/05/28 05:35:47;;;;;;;11.63;7.23;;;16.10;99.90;;;;;;5016068;28;20176;-72
2023/05/28 05:38:12;;;;;;;7.87;6.90;;;16.20;99.90;;;;;;5034451;28;20762;-72
2023/05/28 05:40:38;;;;;;;10.27;6.80;;;16.30;99.90;;;;;;5035054;28;20167;-72
2023/05/28 05:43:03;;;;;;;10.47;6.50;;;16.40;99.90;;;;;;5035221;28;20234;-72
2023/05/28 05:45:29;;;;;;;9.60;6.70;;;16.50;99.90;;;;;;5034943;28;20545;-72
2023/05/28 05:47:54;;;;;;;8.80;6.50;;;16.60;99.90;;;;;;5034852;28;20263;-72
2023/05/28 05:50:20;;;;;;;10.20;6.60;;;16.60;99.90;;;;;;5017196;28;20170;-72
2023/05/28 05:52:46;;;;;;;8.07;6.60;;;16.80;99.90;;;;;;5034312;28;20171;-72
2023/05/28 05:55:11;;;;;;;11.67;6.93;;;16.90;99.90;;;;;;5034574;28;20171;-71
2023/05/28 05:57:37;;;;;;;11.77;8.03;;;17.00;99.90;;;;;;5034840;28;20214;-72
2023/05/28 06:00:05;;;;;;;9.97;7.73;;;16.90;99.90;;;;;;5034658;28;20168;-72
2023/05/28 06:02:30;;;;;;;11.47;7.30;;;17.00;99.90;;;;;;5034307;28;20575;-74
2023/05/28 06:04:56;;;;;;;10.33;7.73;;;16.60;99.90;;;;;;5034834;28;20414;-75
2023/05/28 06:07:23;;;;;;;9.30;7.77;;;16.40;99.90;;;;;;5034280;28;20262;-75
2023/05/28 06:09:49;;;;;;;9.07;7.87;;;16.40;99.90;;;;;;5034732;28;20421;-75
2023/05/28 06:12:15;;;;;;;9.70;7.60;;;16.40;99.90;;;;;;5016761;28;20479;-76
2023/05/28 06:14:41;;;;;;;14.77;8.47;;;16.50;99.90;;;;;;5034455;28;20406;-74
2023/05/28 06:17:06;;;;;;;8.83;7.63;;;16.40;99.90;;;;;;5034110;28;20183;-74
2023/05/28 06:19:33;;;;;;;10.80;7.87;;;16.30;99.90;;;;;;5021363;28;20261;-75
2023/05/28 06:21:59;;;;;;;11.17;7.73;;;16.10;99.90;;;;;;5014279;28;20291;-74
2023/05/28 06:24:24;;;;;;;9.07;7.10;;;16.20;99.90;;;;;;5014347;28;20453;-73
2023/05/28 06:26:50;;;;;;;13.90;7.47;;;16.30;99.90;;;;;;5026142;28;20175;-73
2023/05/28 06:29:16;;;;;;;11.00;7.30;;;16.30;99.90;;;;;;5033849;28;20235;-71
2023/05/28 06:31:42;;;;;;;9.30;6.93;;;16.50;99.90;;;;;;5034143;28;20168;-73
2023/05/28 06:34:07;;;;;;;9.53;7.30;;;16.60;99.90;;;;;;5033026;28;20163;-71
2023/05/28 06:36:35;;;;;;;9.70;6.30;;;16.60;99.90;;;;;;5026987;28;20176;-71
2023/05/28 06:39:01;;;;;;;8.53;6.77;;;16.70;99.90;;;;;;5013409;28;20207;-71
2023/05/28 06:41:26;;;;;;;8.77;7.60;;;17.20;99.90;;;;;;5013988;28;20411;-72
2023/05/28 06:43:52;;;;;;;10.90;7.83;;;17.20;99.90;;;;;;5014061;28;20740;-72
2023/05/28 06:46:17;;;;;;;11.50;7.93;;;17.40;99.90;;;;;;5014069;28;20179;-72
2023/05/28 06:48:43;;;;;;;9.67;7.10;;;17.20;99.90;;;;;;5014230;28;20188;-72
2023/05/28 06:51:08;;;;;;;10.67;6.93;;;17.50;99.90;;;;;;5013932;28;20695;-73
2023/05/28 06:53:34;;;;;;;7.90;6.23;;;17.50;99.90;;;;;;5023092;28;20211;-72
2023/05/28 06:56:00;;;;;;;8.97;6.27;;;17.50;99.90;;;;;;5033629;28;20169;-72
2023/05/28 06:58:26;;;;;;;11.73;6.53;;;17.70;99.90;;;;;;5015842;28;20249;-72
2023/05/28 07:00:51;;;;;;;15.30;7.20;;;17.90;99.90;;;;;;5015911;28;20171;-72
2023/05/28 07:03:17;;;;;;;8.23;6.83;;;17.70;99.90;;;;;;5015851;28;20202;-72
2023/05/28 07:05:42;;;;;;;9.97;6.57;;;17.40;99.90;;;;;;5015662;28;20172;-72
2023/05/28 07:08:08;;;;;;;8.03;6.37;;;17.50;99.90;;;;;;5032949;28;20582;-72
2023/05/28 07:10:33;;;;;;;11.23;6.60;;;17.30;99.90;;;;;;5033384;28;20168;-72
2023/05/28 07:12:59;;;;;;;10.00;5.37;;;17.40;99.90;;;;;;5015423;28;20179;-72
2023/05/28 07:15:25;;;;;;;10.50;6.00;;;17.30;99.90;;;;;;5015573;28;20175;-73
2023/05/28 07:17:50;;;;;;;9.20;6.03;;;17.40;99.90;;;;;;5033337;28;20245;-72
2023/05/28 07:20:16;;;;;;;7.80;5.53;;;17.60;99.90;;;;;;5034578;28;20546;-72
2023/05/28 07:22:41;;;;;;;8.57;5.60;;;17.70;99.70;;;;;;5032495;28;20202;-72
2023/05/28 07:25:07;;;;;;;7.83;5.90;;;17.80;99.80;;;;;;5033313;28;20206;-73
2023/05/28 07:27:33;;;;;;;9.80;5.67;;;17.90;99.60;;;;;;5033705;28;20172;-72
2023/05/28 07:29:59;;;;;;;10.17;6.27;;;18.20;99.60;;;;;;5033411;28;20164;-72
2023/05/28 07:32:25;;;;;;;9.30;5.90;;;18.10;99.10;;;;;;5033364;28;20250;-71
2023/05/28 07:34:51;;;;;;;7.83;5.60;;;18.30;98.70;;;;;;5033317;28;20410;-71
2023/05/28 07:37:16;;;;;;;8.47;6.40;;;18.40;98.40;;;;;;5032721;28;20179;-70
2023/05/28 07:39:42;;;;;;;8.93;5.23;;;18.50;98.30;;;;;;5032750;28;20784;-71
2023/05/28 07:42:07;;;;;;;8.63;5.57;;;18.60;98.40;;;;;;5032825;28;20544;-71
2023/05/28 07:44:33;;;;;;;7.23;5.27;;;18.40;98.20;;;;;;5033202;28;20178;-71
2023/05/28 07:46:58;;;;;;;7.00;6.03;;;18.50;98.10;;;;;;5015246;28;20262;-71
2023/05/28 07:49:24;;;;;;;7.60;5.60;;;18.50;97.80;;;;;;5033309;28;20538;-72
2023/05/28 07:51:50;;;;;;;8.60;5.47;;;18.50;98.10;;;;;;5032937;28;20171;-71
2023/05/28 07:54:15;;;;;;;11.50;6.03;;;18.70;98.20;;;;;;5032338;28;20178;-72
2023/05/28 07:56:41;;;;;;;7.30;5.97;;;19.00;97.90;;;;;;5033170;28;20171;-71
2023/05/28 07:59:06;;;;;;;7.10;5.43;;;19.30;97.30;;;;;;5030541;28;20562;-72
2023/05/28 08:01:34;;;;;;;10.47;5.60;;;19.40;96.10;;;;;;5008187;28;20187;-70
2023/05/28 08:04:00;;;;;;;6.70;5.10;;;18.90;96.80;;;;;;5023022;28;20195;-72
2023/05/28 08:06:26;;;;;;;7.40;4.50;;;18.90;97.10;;;;;;5018153;28;20783;-72
2023/05/28 08:08:52;;;;;;;7.87;5.20;;;19.10;96.90;;;;;;5006780;28;20485;-72
2023/05/28 08:11:18;;;;;;;8.07;5.70;;;19.30;96.40;;;;;;5014290;28;20421;-71
2023/05/28 08:13:43;;;;;;;8.67;6.13;;;19.30;96.50;;;;;;5009272;28;20184;-72
2023/05/28 08:16:12;;;;;;;7.20;4.90;;;19.50;96.20;;;;;;5003173;28;20784;-70
2023/05/28 08:18:39;;;;;;;10.33;6.07;;;19.50;96.40;;;;;;5017055;28;20200;-71
2023/05/28 08:21:05;;;;;;;9.33;6.33;;;19.70;95.60;;;;;;4988764;28;20420;-71
2023/05/28 08:23:34;;;;;;;8.70;5.77;;;19.60;96.00;;;;;;5022655;28;21287;-71
2023/05/28 08:26:03;;;;;;;8.47;5.20;;;19.70;95.60;;;;;;5027085;28;20905;-72
2023/05/28 08:28:31;;;;;;;9.53;6.17;;;19.80;95.50;;;;;;5013884;28;20774;-71
2023/05/28 08:30:57;;;;;;;7.40;5.77;;;19.60;95.50;;;;;;5026403;28;20418;-71
2023/05/28 08:33:23;;;;;;;9.37;5.47;;;19.70;95.70;;;;;;5027279;28;20640;-72
2023/05/28 08:35:49;;;;;;;7.80;5.40;;;20.00;95.50;;;;;;5026689;28;20175;-71
2023/05/28 08:38:14;;;;;;;7.23;5.77;;;20.30;95.40;;;;;;5026621;28;20454;-72
2023/05/28 08:40:48;;;;;;;10.00;5.47;;;20.40;94.70;;;;;;5019335;28;20419;-71
2023/05/28 08:43:14;;;;;;;13.60;6.00;;;20.80;95.00;;;;;;5015539;28;20199;-71
2023/05/28 08:45:40;;;;;;;7.57;5.10;;;21.00;93.90;;;;;;5011437;28;20956;-71
2023/05/28 08:48:06;;;;;;;9.40;5.73;;;21.10;93.50;;;;;;5020141;28;20277;-72
2023/05/28 08:50:37;;;;;;;8.70;5.60;;;21.40;93.50;;;;;;5027918;28;20180;-72
2023/05/28 08:53:04;;;;;;;8.03;5.43;;;21.60;92.90;;;;;;5009023;28;20501;-71
2023/05/28 08:55:29;;;;;;;5.87;4.80;;;21.40;92.70;;;;;;5014769;28;20479;-71
2023/05/28 08:57:55;;;;;;;9.43;5.30;;;21.30;93.10;;;;;;5026352;28;21049;-71
2023/05/28 09:00:22;;;;;;;6.80;5.70;;;21.40;93.50;;;;;;5013024;28;20191;-71
2023/05/28 09:02:49;;;;;;;8.47;4.80;;;21.20;92.90;;;;;;5016015;28;20898;-71
2023/05/28 09:05:14;;;;;;;6.80;6.00;;;20.90;93.30;;;;;;5016004;28;20430;-72
2023/05/28 09:07:40;;;;;;;7.93;5.17;;;20.70;93.50;;;;;;5031765;28;20426;-71
2023/05/28 09:10:07;;;;;;;8.43;5.47;;;20.80;93.60;;;;;;5017522;28;20175;-73
2023/05/28 09:12:32;;;;;;;13.63;5.53;;;20.90;93.70;;;;;;5035565;28;20586;-73
2023/05/28 09:14:59;;;;;;;9.60;5.50;;;21.20;93.60;;;;;;5035599;28;20406;-74
2023/05/28 09:17:38;;;;;;;8.40;5.20;;;21.40;93.50;;;;;;5035769;28;20262;-75
2023/05/28 09:20:12;;;;;;;8.70;5.33;;;21.70;93.10;;;;;;5035830;28;20398;-74
2023/05/28 09:22:37;;;;;;;11.50;5.63;;;21.80;92.60;;;;;;5035277;28;20452;-72
2023/05/28 09:25:04;;;;;;;8.60;5.80;;;22.00;92.30;;;;;;5035190;28;20403;-70
2023/05/28 09:27:30;;;;;;;8.80;5.37;;;22.00;92.20;;;;;;5035270;28;20163;-72
2023/05/28 09:29:55;;;;;;;9.90;5.63;;;22.20;92.30;;;;;;5035311;28;20406;-73
2023/05/28 09:32:21;;;;;;;6.20;5.30;;;22.50;92.00;;;;;;5035334;28;20164;-72
2023/05/28 09:34:49;;;;;;;7.50;5.43;;;22.70;92.30;;;;;;5035179;28;20612;-72
2023/05/28 09:37:17;;;;;;;12.73;5.20;;;22.70;92.30;;;;;;5035415;28;20567;-73
2023/05/28 09:39:44;;;;;;;7.90;5.80;;;22.60;91.40;;;;;;5034530;28;20418;-71
2023/05/28 09:42:10;;;;;;;8.33;5.83;;;22.60;91.20;;;;;;5035015;28;20552;-70
2023/05/28 09:44:37;;;;;;;10.97;5.90;;;22.90;90.70;;;;;;5017188;28;20442;-72
2023/05/28 09:47:17;;;;;;;7.93;5.63;;;22.90;91.40;;;;;;5035224;28;20861;-71
2023/05/28 09:49:44;;;;;;;6.87;4.77;;;23.10;91.30;;;;;;5034856;28;20489;-71
2023/05/28 09:52:19;;;;;;;10.23;5.53;;;22.90;90.00;;;;;;5017032;28;20426;-70
2023/05/28 09:54:50;;;;;;;9.17;4.63;;;22.80;88.90;;;;;;5034626;28;20396;-71
2023/05/28 09:57:22;;;;;;;8.10;4.80;;;22.90;89.50;;;;;;5035430;28;20378;-71
2023/05/28 09:59:53;;;;;;;6.33;4.67;;;22.80;88.10;;;;;;5035061;28;20389;-72
2023/05/28 10:02:37;;;;;;;7.53;5.00;;;22.90;87.70;;;;;;5035180;28;20446;-72
2023/05/28 10:05:07;;;;;;;5.53;4.87;;;23.10;87.20;;;;;;5035215;28;20383;-72
2023/05/28 10:07:34;;;;;;;8.00;5.07;;;23.10;85.20;;;;;;5034260;28;20822;-71
2023/05/28 10:10:03;;;;;;;8.57;5.47;;;23.10;84.90;;;;;;5034336;28;21054;-73
2023/05/28 10:12:30;;;;;;;6.33;4.40;;;23.40;85.00;;;;;;5034485;28;20935;-72
2023/05/28 10:14:56;;;;;;;7.80;4.97;;;23.40;82.80;;;;;;5034612;28;20410;-73
2023/05/28 10:17:22;;;;;;;6.57;5.27;;;23.60;82.10;;;;;;5034723;28;20488;-73
2023/05/28 10:19:48;;;;;;;8.77;4.83;;;23.80;81.50;;;;;;5034890;28;20449;-72
2023/05/28 10:22:15;;;;;;;7.00;4.73;;;23.60;81.30;;;;;;5033896;28;20199;-72
2023/05/28 10:24:42;;;;;;;7.50;4.30;;;23.70;81.20;;;;;;5033979;28;20522;-73
2023/05/28 10:27:12;;;;;;;6.70;4.40;;;23.90;80.10;;;;;;5034614;28;20402;-73
2023/05/28 10:29:46;;;;;;;13.37;5.50;;;24.10;78.00;;;;;;5027347;28;20458;-73
2023/05/28 10:32:15;;;;;;;6.30;4.17;;;24.00;77.20;;;;;;4996998;28;20917;-73
2023/05/28 10:34:41;;;;;;;10.47;5.10;;;23.80;76.20;;;;;;5014543;28;20502;-73
2023/05/28 10:37:09;;;;;;;8.30;4.97;;;23.70;76.30;;;;;;5025637;28;20426;-73
2023/05/28 10:39:47;;;;;;;7.40;4.73;;;24.00;78.30;;;;;;5033853;28;20505;-72
2023/05/28 10:42:18;;;;;;;7.57;4.93;;;24.00;75.40;;;;;;5034191;28;20453;-72
2023/05/28 10:44:59;;;;;;;5.53;4.30;;;24.20;75.40;;;;;;5033977;28;20405;-72
2023/05/28 10:47:39;;;;;;;7.43;5.07;;;24.10;75.00;;;;;;5031881;28;20421;-72
2023/05/28 10:50:07;;;;;;;6.30;4.70;;;24.20;74.40;;;;;;5034047;28;20386;-72
2023/05/28 10:52:33;;;;;;;4.60;4.10;;;24.30;75.10;;;;;;5032380;28;20472;-73
2023/05/28 10:55:05;;;;;;;6.80;4.43;;;24.30;74.70;;;;;;5033291;28;20410;-73
2023/05/28 10:57:40;;;;;;;7.40;4.67;;;24.30;75.60;;;;;;5033578;28;20164;-73
2023/05/28 11:00:11;;;;;;;7.70;4.63;;;24.60;75.30;;;;;;5033831;28;20416;-72
2023/05/28 11:02:38;;;;;;;7.80;4.93;;;24.80;74.50;;;;;;5033514;28;20454;-72
2023/05/28 11:05:05;;;;;;;6.60;4.97;;;24.60;75.90;;;;;;5033428;28;20460;-72
2023/05/28 11:07:36;;;;;;;7.80;4.77;;;24.60;75.80;;;;;;5018555;28;20419;-72
2023/05/28 11:10:04;;;;;;;8.40;5.07;;;24.60;74.20;;;;;;5013280;28;20412;-72
2023/05/28 11:12:32;;;;;;;6.00;4.57;;;25.10;72.90;;;;;;5013715;28;20449;-72
2023/05/28 11:14:57;;;;;;;6.80;4.40;;;25.00;70.70;;;;;;5013684;28;20414;-72
2023/05/28 11:17:23;;;;;;;8.33;4.80;;;25.10;71.80;;;;;;5013383;28;20750;-72
2023/05/28 11:19:51;;;;;;;9.43;5.20;;;25.20;71.40;;;;;;5013566;28;20218;-72
2023/05/28 11:22:18;;;;;;;8.07;4.97;;;25.40;73.10;;;;;;5013447;28;20196;-72
2023/05/28 11:24:55;;;;;;;7.53;4.80;;;25.60;71.30;;;;;;5012962;28;20438;-72
2023/05/28 11:27:22;;;;;;;6.30;4.60;;;26.50;69.00;;;;;;5013648;28;20901;-73
2023/05/28 11:29:48;;;;;;;6.80;5.00;;;28.70;66.60;;;;;;4995865;28;20434;-73
2023/05/28 11:32:14;;;;;;;8.30;5.00;;;29.80;64.90;;;;;;5013391;28;20411;-73
2023/05/28 11:34:40;;;;;;;8.80;5.20;;;29.60;62.20;;;;;;5013539;28;20514;-73
2023/05/28 11:37:06;;;;;;;7.87;5.50;;;30.40;60.40;;;;;;5013438;28;20187;-73
2023/05/28 11:39:33;;;;;;;8.90;4.87;;;30.80;58.90;;;;;;5012779;28;20455;-73
2023/05/28 11:41:59;;;;;;;7.00;5.17;;;31.00;58.60;;;;;;5013309;28;20434;-73
2023/05/28 11:44:24;;;;;;;7.70;4.80;;;29.90;57.30;;;;;;5013869;28;20860;-73
2023/05/28 11:46:55;;;;;;;6.67;4.73;;;30.00;57.30;;;;;;5013693;28;20178;-73
2023/05/28 11:49:22;;;;;;;9.63;4.90;;;30.70;54.90;;;;;;5013163;28;20598;-73
2023/05/28 11:51:50;;;;;;;7.50;5.23;;;31.60;53.60;;;;;;4995622;28;20422;-73
2023/05/28 11:54:15;;;;;;;7.83;4.90;;;31.80;52.10;;;;;;5012720;28;20852;-73
2023/05/28 11:56:41;;;;;;;6.00;4.17;;;32.20;52.30;;;;;;5013245;28;20494;-73
2023/05/28 11:59:07;;;;;;;5.97;5.00;;;31.00;51.80;;;;;;5014567;28;20246;-73
2023/05/28 12:01:35;;;;;;;8.80;5.10;;;31.50;50.50;;;;;;5017641;28;20200;-73
2023/05/28 12:04:07;;;;;;;6.00;4.03;;;32.00;49.00;;;;;;5018574;28;20204;-78
2023/05/28 12:06:33;;;;;;;5.93;4.90;;;33.40;46.60;;;;;;5025069;28;20410;-73
2023/05/28 12:09:08;;;;;;;5.37;4.27;;;33.00;45.50;;;;;;5037146;28;20425;-73
2023/05/28 12:11:34;;;;;;;8.50;4.83;;;32.90;44.20;;;;;;5037883;28;20481;-73
2023/05/28 12:14:10;;;;;;;6.03;4.77;;;31.40;44.50;;;;;;5036548;28;20418;-73
2023/05/28 12:16:48;;;;;;;8.83;4.93;;;30.30;45.80;;;;;;5036931;28;20390;-73
2023/05/28 12:19:15;;;;;;;5.87;4.40;;;30.70;45.70;;;;;;5036600;28;20429;-71
2023/05/28 12:21:41;;;;;;;5.47;4.30;;;31.00;45.30;;;;;;5037038;28;20405;-71
2023/05/28 12:24:14;;;;;;;7.03;5.03;;;31.90;46.60;;;;;;5036195;28;20450;-71
2023/05/28 12:26:41;;;;;;;7.57;4.80;;;31.80;43.40;;;;;;5036815;28;20404;-72
2023/05/28 12:29:07;;;;;;;9.43;4.43;;;31.90;43.00;;;;;;5035099;28;20780;-72
2023/05/28 12:31:33;;;;;;;6.23;5.57;;;31.00;44.80;;;;;;5024631;28;20426;-71
2023/05/28 12:33:58;;;;;;;6.17;4.93;;;31.10;45.00;;;;;;5016555;28;20173;-72
2023/05/28 12:36:24;;;;;;;5.60;5.00;;;32.20;44.00;;;;;;5027312;28;20515;-73
2023/05/28 12:38:50;;;;;;;7.57;4.93;;;32.10;43.50;;;;;;5036032;28;20581;-73
2023/05/28 12:41:16;;;;;;;6.97;4.70;;;32.90;44.10;;;;;;5036258;28;20167;-73